Terminal Aerodrome Forecast
Issued by NWS

Home | Current Version | Previous Version | Text Only | Print | Product List | Glossary On
Versions: 1 2 3 4 5 6 7 8 9 10 11 12 13 14 15 16 17 18 19 20
000
FTUS43 KOAX 292335
TAFSNY
TAF
KSNY 292335Z 3000/3024 02014KT P6SM BKN040
     FM300300 09005KT P6SM SCT040
     FM300600 29006KT P6SM SKC
     FM301500 13009G20KT P6SM BKN100=

USA.gov is the U.S. government's official web portal to all federal, state and local government web resources and services.